sensor_id;sensor_type;location;lat;lon;timestamp;P1;durP1;ratioP1;P2;durP2;ratioP2
20294;SDS011;10306;52.128;5.208;2023-03-23T00:01:17;5.77;;;4.20;;
20294;SDS011;10306;52.128;5.208;2023-03-23T00:03:44;7.70;;;5.23;;
20294;SDS011;10306;52.128;5.208;2023-03-23T00:06:11;4.37;;;3.97;;
20294;SDS011;10306;52.128;5.208;2023-03-23T00:08:42;5.30;;;3.90;;
20294;SDS011;10306;52.128;5.208;2023-03-23T00:11:15;4.47;;;4.03;;
20294;SDS011;10306;52.128;5.208;2023-03-23T00:13:43;3.73;;;3.37;;
20294;SDS011;10306;52.128;5.208;2023-03-23T00:16:10;3.80;;;3.40;;
20294;SDS011;10306;52.128;5.208;2023-03-23T00:18:46;4.23;;;3.80;;
20294;SDS011;10306;52.128;5.208;2023-03-23T00:21:12;5.20;;;3.70;;
20294;SDS011;10306;52.128;5.208;2023-03-23T00:23:38;3.93;;;3.47;;
20294;SDS011;10306;52.128;5.208;2023-03-23T00:26:05;4.00;;;3.70;;
20294;SDS011;10306;52.128;5.208;2023-03-23T00:28:31;4.10;;;3.50;;
20294;SDS011;10306;52.128;5.208;2023-03-23T00:30:57;6.23;;;3.47;;
20294;SDS011;10306;52.128;5.208;2023-03-23T00:33:24;6.77;;;3.97;;
20294;SDS011;10306;52.128;5.208;2023-03-23T00:35:51;3.43;;;3.23;;
20294;SDS011;10306;52.128;5.208;2023-03-23T00:38:18;3.93;;;3.63;;
20294;SDS011;10306;52.128;5.208;2023-03-23T00:40:44;4.30;;;3.40;;
20294;SDS011;10306;52.128;5.208;2023-03-23T00:43:12;3.37;;;3.00;;
20294;SDS011;10306;52.128;5.208;2023-03-23T00:45:38;4.70;;;3.40;;
20294;SDS011;10306;52.128;5.208;2023-03-23T00:48:04;5.40;;;3.60;;
20294;SDS011;10306;52.128;5.208;2023-03-23T00:50:31;3.77;;;3.10;;
20294;SDS011;10306;52.128;5.208;2023-03-23T00:52:57;3.47;;;3.17;;
20294;SDS011;10306;52.128;5.208;2023-03-23T00:55:24;2.83;;;2.63;;
20294;SDS011;10306;52.128;5.208;2023-03-23T00:57:50;4.63;;;2.80;;
20294;SDS011;10306;52.128;5.208;2023-03-23T01:00:17;2.80;;;2.60;;
20294;SDS011;10306;52.128;5.208;2023-03-23T01:02:44;2.80;;;2.60;;
20294;SDS011;10306;52.128;5.208;2023-03-23T01:05:10;3.97;;;2.50;;
20294;SDS011;10306;52.128;5.208;2023-03-23T01:07:36;2.90;;;2.47;;
20294;SDS011;10306;52.128;5.208;2023-03-23T01:10:03;3.07;;;2.77;;
20294;SDS011;10306;52.128;5.208;2023-03-23T01:12:29;2.97;;;2.77;;
20294;SDS011;10306;52.128;5.208;2023-03-23T01:14:55;2.87;;;2.50;;
20294;SDS011;10306;52.128;5.208;2023-03-23T01:17:21;3.03;;;2.87;;
20294;SDS011;10306;52.128;5.208;2023-03-23T01:19:47;6.53;;;2.97;;
20294;SDS011;10306;52.128;5.208;2023-03-23T01:22:13;3.87;;;3.20;;
20294;SDS011;10306;52.128;5.208;2023-03-23T01:24:39;2.77;;;2.57;;
20294;SDS011;10306;52.128;5.208;2023-03-23T01:27:05;3.07;;;2.83;;
20294;SDS011;10306;52.128;5.208;2023-03-23T01:29:35;4.63;;;2.90;;
20294;SDS011;10306;52.128;5.208;2023-03-23T01:32:01;3.50;;;2.47;;
20294;SDS011;10306;52.128;5.208;2023-03-23T01:34:27;2.47;;;2.33;;
20294;SDS011;10306;52.128;5.208;2023-03-23T01:36:53;2.90;;;2.70;;
20294;SDS011;10306;52.128;5.208;2023-03-23T01:39:19;3.37;;;2.47;;
20294;SDS011;10306;52.128;5.208;2023-03-23T01:41:45;2.60;;;2.50;;
20294;SDS011;10306;52.128;5.208;2023-03-23T01:46:44;3.57;;;3.20;;
20294;SDS011;10306;52.128;5.208;2023-03-23T01:51:37;3.10;;;2.90;;
20294;SDS011;10306;52.128;5.208;2023-03-23T01:54:06;5.03;;;2.30;;
20294;SDS011;10306;52.128;5.208;2023-03-23T01:56:35;2.80;;;2.60;;
20294;SDS011;10306;52.128;5.208;2023-03-23T01:59:03;2.50;;;2.40;;
20294;SDS011;10306;52.128;5.208;2023-03-23T02:01:29;2.80;;;2.60;;
20294;SDS011;10306;52.128;5.208;2023-03-23T02:03:56;2.50;;;2.40;;
20294;SDS011;10306;52.128;5.208;2023-03-23T02:06:23;2.30;;;2.20;;
20294;SDS011;10306;52.128;5.208;2023-03-23T02:08:49;2.93;;;2.73;;
20294;SDS011;10306;52.128;5.208;2023-03-23T02:11:17;2.40;;;2.30;;
20294;SDS011;10306;52.128;5.208;2023-03-23T02:13:44;2.80;;;2.60;;
20294;SDS011;10306;52.128;5.208;2023-03-23T02:21:38;2.60;;;2.43;;
20294;SDS011;10306;52.128;5.208;2023-03-23T02:27:01;2.37;;;2.27;;
20294;SDS011;10306;52.128;5.208;2023-03-23T02:32:01;2.47;;;2.27;;
20294;SDS011;10306;52.128;5.208;2023-03-23T02:34:42;5.10;;;2.50;;
20294;SDS011;10306;52.128;5.208;2023-03-23T02:37:13;2.53;;;2.40;;
20294;SDS011;10306;52.128;5.208;2023-03-23T02:39:42;2.80;;;2.40;;
20294;SDS011;10306;52.128;5.208;2023-03-23T02:42:10;2.63;;;2.43;;
20294;SDS011;10306;52.128;5.208;2023-03-23T02:44:38;2.70;;;2.50;;
20294;SDS011;10306;52.128;5.208;2023-03-23T02:47:06;2.60;;;2.40;;
20294;SDS011;10306;52.128;5.208;2023-03-23T02:49:34;3.53;;;2.37;;
20294;SDS011;10306;52.128;5.208;2023-03-23T02:52:05;3.10;;;2.20;;
20294;SDS011;10306;52.128;5.208;2023-03-23T02:54:32;2.70;;;2.50;;
20294;SDS011;10306;52.128;5.208;2023-03-23T02:56:59;2.30;;;2.10;;
20294;SDS011;10306;52.128;5.208;2023-03-23T02:59:26;2.50;;;2.40;;
20294;SDS011;10306;52.128;5.208;2023-03-23T03:02:03;2.30;;;2.20;;
20294;SDS011;10306;52.128;5.208;2023-03-23T03:04:31;2.57;;;2.30;;
20294;SDS011;10306;52.128;5.208;2023-03-23T03:09:46;3.10;;;2.10;;
20294;SDS011;10306;52.128;5.208;2023-03-23T03:12:21;2.17;;;1.90;;
20294;SDS011;10306;52.128;5.208;2023-03-23T03:14:52;2.07;;;1.97;;
20294;SDS011;10306;52.128;5.208;2023-03-23T03:17:20;2.13;;;1.90;;
20294;SDS011;10306;52.128;5.208;2023-03-23T03:19:49;2.90;;;2.10;;
20294;SDS011;10306;52.128;5.208;2023-03-23T03:22:17;2.00;;;1.80;;
20294;SDS011;10306;52.128;5.208;2023-03-23T03:24:46;2.10;;;1.87;;
20294;SDS011;10306;52.128;5.208;2023-03-23T03:27:13;1.80;;;1.67;;
20294;SDS011;10306;52.128;5.208;2023-03-23T03:29:42;2.97;;;2.20;;
20294;SDS011;10306;52.128;5.208;2023-03-23T03:32:12;1.70;;;1.60;;
20294;SDS011;10306;52.128;5.208;2023-03-23T03:34:38;2.43;;;1.63;;
20294;SDS011;10306;52.128;5.208;2023-03-23T03:37:04;2.00;;;1.53;;
20294;SDS011;10306;52.128;5.208;2023-03-23T03:39:33;1.60;;;1.50;;
20294;SDS011;10306;52.128;5.208;2023-03-23T03:41:59;2.00;;;1.50;;
20294;SDS011;10306;52.128;5.208;2023-03-23T03:44:25;1.57;;;1.47;;
20294;SDS011;10306;52.128;5.208;2023-03-23T03:46:51;3.27;;;1.60;;
20294;SDS011;10306;52.128;5.208;2023-03-23T03:49:17;2.97;;;1.63;;
20294;SDS011;10306;52.128;5.208;2023-03-23T03:51:44;1.63;;;1.53;;
20294;SDS011;10306;52.128;5.208;2023-03-23T03:54:11;2.27;;;1.90;;
20294;SDS011;10306;52.128;5.208;2023-03-23T03:56:37;3.70;;;1.87;;
20294;SDS011;10306;52.128;5.208;2023-03-23T03:59:05;1.63;;;1.37;;
20294;SDS011;10306;52.128;5.208;2023-03-23T04:01:32;2.27;;;1.63;;
20294;SDS011;10306;52.128;5.208;2023-03-23T04:03:58;1.80;;;1.43;;
20294;SDS011;10306;52.128;5.208;2023-03-23T04:06:25;1.70;;;1.60;;
20294;SDS011;10306;52.128;5.208;2023-03-23T04:08:53;1.30;;;1.20;;
20294;SDS011;10306;52.128;5.208;2023-03-23T04:11:20;3.13;;;1.90;;
20294;SDS011;10306;52.128;5.208;2023-03-23T04:13:46;1.70;;;1.60;;
20294;SDS011;10306;52.128;5.208;2023-03-23T04:16:12;2.60;;;1.30;;
20294;SDS011;10306;52.128;5.208;2023-03-23T04:18:38;2.40;;;1.50;;
20294;SDS011;10306;52.128;5.208;2023-03-23T04:21:04;4.33;;;1.90;;
20294;SDS011;10306;52.128;5.208;2023-03-23T04:23:33;1.57;;;1.30;;
20294;SDS011;10306;52.128;5.208;2023-03-23T04:26:00;2.00;;;1.30;;
20294;SDS011;10306;52.128;5.208;2023-03-23T04:28:26;1.77;;;1.60;;
20294;SDS011;10306;52.128;5.208;2023-03-23T04:30:53;2.10;;;1.40;;
20294;SDS011;10306;52.128;5.208;2023-03-23T04:33:22;2.57;;;1.40;;
20294;SDS011;10306;52.128;5.208;2023-03-23T04:35:49;1.70;;;1.40;;
20294;SDS011;10306;52.128;5.208;2023-03-23T04:38:16;4.67;;;2.43;;
20294;SDS011;10306;52.128;5.208;2023-03-23T04:40:45;2.70;;;1.60;;
20294;SDS011;10306;52.128;5.208;2023-03-23T04:43:11;2.37;;;1.30;;
20294;SDS011;10306;52.128;5.208;2023-03-23T04:45:39;3.33;;;1.30;;
20294;SDS011;10306;52.128;5.208;2023-03-23T04:48:10;2.93;;;1.57;;
20294;SDS011;10306;52.128;5.208;2023-03-23T04:50:36;1.93;;;1.40;;
20294;SDS011;10306;52.128;5.208;2023-03-23T04:53:03;3.70;;;1.40;;
20294;SDS011;10306;52.128;5.208;2023-03-23T04:55:34;5.30;;;1.50;;
20294;SDS011;10306;52.128;5.208;2023-03-23T04:58:01;5.10;;;1.40;;
20294;SDS011;10306;52.128;5.208;2023-03-23T05:00:27;2.30;;;1.37;;
20294;SDS011;10306;52.128;5.208;2023-03-23T05:02:53;5.07;;;1.70;;
20294;SDS011;10306;52.128;5.208;2023-03-23T05:05:20;1.43;;;1.10;;
20294;SDS011;10306;52.128;5.208;2023-03-23T05:07:47;3.10;;;1.70;;
20294;SDS011;10306;52.128;5.208;2023-03-23T05:10:13;5.43;;;1.77;;
20294;SDS011;10306;52.128;5.208;2023-03-23T05:12:39;1.30;;;1.10;;
20294;SDS011;10306;52.128;5.208;2023-03-23T05:15:05;3.93;;;1.47;;
20294;SDS011;10306;52.128;5.208;2023-03-23T05:17:31;3.37;;;1.50;;
20294;SDS011;10306;52.128;5.208;2023-03-23T05:19:58;3.37;;;1.57;;
20294;SDS011;10306;52.128;5.208;2023-03-23T05:22:28;8.07;;;1.80;;
20294;SDS011;10306;52.128;5.208;2023-03-23T05:24:57;3.33;;;1.80;;
20294;SDS011;10306;52.128;5.208;2023-03-23T05:27:23;2.97;;;1.30;;
20294;SDS011;10306;52.128;5.208;2023-03-23T05:29:48;3.60;;;1.67;;
20294;SDS011;10306;52.128;5.208;2023-03-23T05:32:15;4.53;;;1.50;;
20294;SDS011;10306;52.128;5.208;2023-03-23T05:34:45;5.03;;;1.70;;
20294;SDS011;10306;52.128;5.208;2023-03-23T05:37:12;7.50;;;1.97;;
20294;SDS011;10306;52.128;5.208;2023-03-23T05:39:38;5.60;;;2.67;;
20294;SDS011;10306;52.128;5.208;2023-03-23T05:42:04;6.40;;;2.10;;
20294;SDS011;10306;52.128;5.208;2023-03-23T05:44:31;4.67;;;2.33;;
20294;SDS011;10306;52.128;5.208;2023-03-23T05:46:57;3.93;;;1.97;;
20294;SDS011;10306;52.128;5.208;2023-03-23T05:49:23;8.00;;;2.53;;
20294;SDS011;10306;52.128;5.208;2023-03-23T05:51:51;9.90;;;3.00;;
20294;SDS011;10306;52.128;5.208;2023-03-23T05:54:17;5.30;;;1.83;;
20294;SDS011;10306;52.128;5.208;2023-03-23T05:56:43;5.17;;;2.50;;
20294;SDS011;10306;52.128;5.208;2023-03-23T05:59:09;4.70;;;2.70;;
20294;SDS011;10306;52.128;5.208;2023-03-23T06:01:36;3.90;;;2.30;;
20294;SDS011;10306;52.128;5.208;2023-03-23T06:04:02;6.90;;;2.53;;
20294;SDS011;10306;52.128;5.208;2023-03-23T06:06:29;5.70;;;2.60;;
20294;SDS011;10306;52.128;5.208;2023-03-23T06:08:56;7.23;;;2.67;;
20294;SDS011;10306;52.128;5.208;2023-03-23T06:11:23;9.40;;;2.50;;
20294;SDS011;10306;52.128;5.208;2023-03-23T06:13:49;2.93;;;2.00;;
20294;SDS011;10306;52.128;5.208;2023-03-23T06:16:15;5.63;;;2.40;;
20294;SDS011;10306;52.128;5.208;2023-03-23T06:18:42;4.80;;;2.07;;
20294;SDS011;10306;52.128;5.208;2023-03-23T06:21:08;3.37;;;2.47;;
20294;SDS011;10306;52.128;5.208;2023-03-23T06:23:35;3.50;;;2.40;;
20294;SDS011;10306;52.128;5.208;2023-03-23T06:26:03;5.20;;;2.67;;
20294;SDS011;10306;52.128;5.208;2023-03-23T06:28:30;6.70;;;2.67;;
20294;SDS011;10306;52.128;5.208;2023-03-23T06:30:59;4.33;;;2.70;;
20294;SDS011;10306;52.128;5.208;2023-03-23T06:33:25;4.53;;;2.63;;
20294;SDS011;10306;52.128;5.208;2023-03-23T06:35:51;5.67;;;2.67;;
20294;SDS011;10306;52.128;5.208;2023-03-23T06:38:17;6.83;;;2.83;;
20294;SDS011;10306;52.128;5.208;2023-03-23T06:40:43;7.23;;;3.40;;
20294;SDS011;10306;52.128;5.208;2023-03-23T06:43:11;5.50;;;2.57;;
20294;SDS011;10306;52.128;5.208;2023-03-23T06:45:38;5.87;;;2.53;;
20294;SDS011;10306;52.128;5.208;2023-03-23T06:48:04;5.83;;;2.90;;
20294;SDS011;10306;52.128;5.208;2023-03-23T06:50:30;6.13;;;2.80;;
20294;SDS011;10306;52.128;5.208;2023-03-23T06:52:56;6.17;;;2.77;;
20294;SDS011;10306;52.128;5.208;2023-03-23T06:55:22;8.03;;;3.23;;
20294;SDS011;10306;52.128;5.208;2023-03-23T06:57:48;9.37;;;3.10;;
20294;SDS011;10306;52.128;5.208;2023-03-23T07:00:15;5.47;;;2.87;;
20294;SDS011;10306;52.128;5.208;2023-03-23T07:02:41;7.17;;;2.97;;
20294;SDS011;10306;52.128;5.208;2023-03-23T07:05:07;3.83;;;2.93;;
20294;SDS011;10306;52.128;5.208;2023-03-23T07:07:37;5.03;;;2.93;;
20294;SDS011;10306;52.128;5.208;2023-03-23T07:10:03;7.23;;;3.07;;
20294;SDS011;10306;52.128;5.208;2023-03-23T07:12:30;4.50;;;2.20;;
20294;SDS011;10306;52.128;5.208;2023-03-23T07:14:56;6.23;;;2.63;;
20294;SDS011;10306;52.128;5.208;2023-03-23T07:17:22;5.90;;;2.27;;
20294;SDS011;10306;52.128;5.208;2023-03-23T07:19:48;7.07;;;3.03;;
20294;SDS011;10306;52.128;5.208;2023-03-23T07:22:14;3.73;;;2.70;;
20294;SDS011;10306;52.128;5.208;2023-03-23T07:24:40;4.33;;;2.60;;
20294;SDS011;10306;52.128;5.208;2023-03-23T07:27:06;7.77;;;3.03;;
20294;SDS011;10306;52.128;5.208;2023-03-23T07:29:32;6.47;;;2.47;;
20294;SDS011;10306;52.128;5.208;2023-03-23T07:32:00;5.70;;;2.60;;
20294;SDS011;10306;52.128;5.208;2023-03-23T07:34:26;4.40;;;2.40;;
20294;SDS011;10306;52.128;5.208;2023-03-23T07:36:53;8.63;;;2.47;;
20294;SDS011;10306;52.128;5.208;2023-03-23T07:39:19;4.80;;;2.13;;
20294;SDS011;10306;52.128;5.208;2023-03-23T07:41:45;4.70;;;2.30;;
20294;SDS011;10306;52.128;5.208;2023-03-23T07:44:11;1.97;;;1.70;;
20294;SDS011;10306;52.128;5.208;2023-03-23T07:46:37;5.40;;;1.87;;
20294;SDS011;10306;52.128;5.208;2023-03-23T07:49:03;5.63;;;2.20;;
20294;SDS011;10306;52.128;5.208;2023-03-23T07:51:30;4.30;;;2.13;;
20294;SDS011;10306;52.128;5.208;2023-03-23T07:53:56;5.90;;;2.10;;
20294;SDS011;10306;52.128;5.208;2023-03-23T07:56:23;5.80;;;2.17;;
20294;SDS011;10306;52.128;5.208;2023-03-23T07:58:49;6.13;;;2.03;;
20294;SDS011;10306;52.128;5.208;2023-03-23T08:01:16;3.40;;;2.30;;
20294;SDS011;10306;52.128;5.208;2023-03-23T08:03:43;4.37;;;2.23;;
20294;SDS011;10306;52.128;5.208;2023-03-23T08:06:09;6.93;;;2.33;;
20294;SDS011;10306;52.128;5.208;2023-03-23T08:08:35;7.83;;;2.67;;
20294;SDS011;10306;52.128;5.208;2023-03-23T08:11:02;8.73;;;2.37;;
20294;SDS011;10306;52.128;5.208;2023-03-23T08:13:28;5.27;;;2.40;;
20294;SDS011;10306;52.128;5.208;2023-03-23T08:15:54;2.73;;;2.40;;
20294;SDS011;10306;52.128;5.208;2023-03-23T08:18:21;2.80;;;2.30;;
20294;SDS011;10306;52.128;5.208;2023-03-23T08:20:47;3.77;;;2.30;;
20294;SDS011;10306;52.128;5.208;2023-03-23T08:23:14;4.67;;;1.97;;
20294;SDS011;10306;52.128;5.208;2023-03-23T08:25:41;4.40;;;2.20;;
20294;SDS011;10306;52.128;5.208;2023-03-23T08:28:08;3.07;;;1.87;;
20294;SDS011;10306;52.128;5.208;2023-03-23T08:30:34;2.97;;;2.17;;
20294;SDS011;10306;52.128;5.208;2023-03-23T08:33:02;3.63;;;2.10;;
20294;SDS011;10306;52.128;5.208;2023-03-23T08:35:30;6.80;;;2.27;;
20294;SDS011;10306;52.128;5.208;2023-03-23T08:37:56;6.67;;;2.40;;
20294;SDS011;10306;52.128;5.208;2023-03-23T08:40:22;7.77;;;2.57;;
20294;SDS011;10306;52.128;5.208;2023-03-23T08:42:49;5.00;;;2.73;;
20294;SDS011;10306;52.128;5.208;2023-03-23T08:45:16;4.80;;;2.77;;
20294;SDS011;10306;52.128;5.208;2023-03-23T08:47:43;3.23;;;2.27;;
20294;SDS011;10306;52.128;5.208;2023-03-23T08:50:11;3.97;;;2.70;;
20294;SDS011;10306;52.128;5.208;2023-03-23T08:52:37;7.27;;;2.70;;
20294;SDS011;10306;52.128;5.208;2023-03-23T08:55:04;5.87;;;2.37;;
20294;SDS011;10306;52.128;5.208;2023-03-23T08:57:30;10.13;;;2.67;;
20294;SDS011;10306;52.128;5.208;2023-03-23T08:59:56;6.63;;;2.87;;
20294;SDS011;10306;52.128;5.208;2023-03-23T09:02:25;5.77;;;2.33;;
20294;SDS011;10306;52.128;5.208;2023-03-23T09:04:51;5.67;;;2.40;;
20294;SDS011;10306;52.128;5.208;2023-03-23T09:07:17;4.50;;;2.23;;
20294;SDS011;10306;52.128;5.208;2023-03-23T09:09:43;7.53;;;2.57;;
20294;SDS011;10306;52.128;5.208;2023-03-23T09:12:10;3.77;;;2.07;;
20294;SDS011;10306;52.128;5.208;2023-03-23T09:14:37;4.20;;;2.00;;
20294;SDS011;10306;52.128;5.208;2023-03-23T09:17:03;5.90;;;2.30;;
20294;SDS011;10306;52.128;5.208;2023-03-23T09:19:30;6.83;;;1.93;;
20294;SDS011;10306;52.128;5.208;2023-03-23T09:21:57;3.27;;;2.00;;
20294;SDS011;10306;52.128;5.208;2023-03-23T09:24:23;5.53;;;2.53;;
20294;SDS011;10306;52.128;5.208;2023-03-23T09:26:50;4.67;;;1.67;;
20294;SDS011;10306;52.128;5.208;2023-03-23T09:29:16;2.97;;;2.17;;
20294;SDS011;10306;52.128;5.208;2023-03-23T09:31:43;5.47;;;2.00;;
20294;SDS011;10306;52.128;5.208;2023-03-23T09:34:11;5.77;;;2.10;;
20294;SDS011;10306;52.128;5.208;2023-03-23T09:36:37;6.30;;;2.47;;
20294;SDS011;10306;52.128;5.208;2023-03-23T09:39:04;4.80;;;2.07;;
20294;SDS011;10306;52.128;5.208;2023-03-23T09:41:49;4.93;;;1.90;;
20294;SDS011;10306;52.128;5.208;2023-03-23T09:44:38;5.17;;;1.83;;
20294;SDS011;10306;52.128;5.208;2023-03-23T09:49:43;5.73;;;2.00;;
20294;SDS011;10306;52.128;5.208;2023-03-23T09:52:11;8.10;;;3.37;;
20294;SDS011;10306;52.128;5.208;2023-03-23T09:54:40;3.80;;;1.70;;
20294;SDS011;10306;52.128;5.208;2023-03-23T09:57:49;4.67;;;1.57;;
20294;SDS011;10306;52.128;5.208;2023-03-23T10:02:46;3.17;;;1.67;;
20294;SDS011;10306;52.128;5.208;2023-03-23T10:07:43;4.87;;;2.10;;
20294;SDS011;10306;52.128;5.208;2023-03-23T10:10:11;11.03;;;1.97;;
20294;SDS011;10306;52.128;5.208;2023-03-23T10:15:12;5.07;;;1.40;;
20294;SDS011;10306;52.128;5.208;2023-03-23T10:17:46;3.87;;;1.90;;
20294;SDS011;10306;52.128;5.208;2023-03-23T10:25:26;2.87;;;1.70;;
20294;SDS011;10306;52.128;5.208;2023-03-23T10:33:36;5.40;;;2.13;;
20294;SDS011;10306;52.128;5.208;2023-03-23T10:36:08;4.63;;;1.50;;
20294;SDS011;10306;52.128;5.208;2023-03-23T10:38:37;7.93;;;2.73;;
20294;SDS011;10306;52.128;5.208;2023-03-23T10:41:11;6.43;;;1.83;;
20294;SDS011;10306;52.128;5.208;2023-03-23T10:43:38;4.90;;;1.70;;
20294;SDS011;10306;52.128;5.208;2023-03-23T10:48:49;2.77;;;1.57;;
20294;SDS011;10306;52.128;5.208;2023-03-23T10:51:16;3.77;;;1.93;;
20294;SDS011;10306;52.128;5.208;2023-03-23T10:53:45;3.73;;;1.73;;
20294;SDS011;10306;52.128;5.208;2023-03-23T10:56:21;3.33;;;2.37;;
20294;SDS011;10306;52.128;5.208;2023-03-23T10:58:48;5.40;;;1.77;;
20294;SDS011;10306;52.128;5.208;2023-03-23T11:01:14;8.07;;;2.17;;
20294;SDS011;10306;52.128;5.208;2023-03-23T11:03:44;5.53;;;1.77;;
20294;SDS011;10306;52.128;5.208;2023-03-23T11:06:19;7.07;;;2.20;;
20294;SDS011;10306;52.128;5.208;2023-03-23T11:08:51;2.90;;;1.83;;
20294;SDS011;10306;52.128;5.208;2023-03-23T11:11:18;5.17;;;1.43;;
20294;SDS011;10306;52.128;5.208;2023-03-23T11:13:47;5.13;;;1.97;;
20294;SDS011;10306;52.128;5.208;2023-03-23T11:16:23;5.17;;;1.40;;
20294;SDS011;10306;52.128;5.208;2023-03-23T11:18:49;8.20;;;2.30;;
20294;SDS011;10306;52.128;5.208;2023-03-23T11:21:15;8.37;;;1.67;;
20294;SDS011;10306;52.128;5.208;2023-03-23T11:23:42;4.10;;;1.80;;
20294;SDS011;10306;52.128;5.208;2023-03-23T11:26:42;7.00;;;1.90;;
20294;SDS011;10306;52.128;5.208;2023-03-23T11:29:04;6.50;;;1.87;;
20294;SDS011;10306;52.128;5.208;2023-03-23T11:31:34;2.60;;;1.57;;
20294;SDS011;10306;52.128;5.208;2023-03-23T11:34:02;4.97;;;1.70;;
20294;SDS011;10306;52.128;5.208;2023-03-23T11:36:30;4.77;;;1.93;;
20294;SDS011;10306;52.128;5.208;2023-03-23T11:38:56;8.57;;;1.90;;
20294;SDS011;10306;52.128;5.208;2023-03-23T11:41:23;3.73;;;1.53;;
20294;SDS011;10306;52.128;5.208;2023-03-23T11:43:51;3.97;;;1.43;;
20294;SDS011;10306;52.128;5.208;2023-03-23T11:48:46;7.40;;;1.93;;
20294;SDS011;10306;52.128;5.208;2023-03-23T11:56:38;4.40;;;2.10;;
20294;SDS011;10306;52.128;5.208;2023-03-23T11:59:10;7.87;;;2.07;;
20294;SDS011;10306;52.128;5.208;2023-03-23T12:01:46;3.67;;;1.60;;
20294;SDS011;10306;52.128;5.208;2023-03-23T12:06:58;5.90;;;1.80;;
20294;SDS011;10306;52.128;5.208;2023-03-23T12:09:43;6.40;;;1.47;;
20294;SDS011;10306;52.128;5.208;2023-03-23T12:17:15;5.13;;;1.60;;
20294;SDS011;10306;52.128;5.208;2023-03-23T12:27:30;5.23;;;2.23;;
20294;SDS011;10306;52.128;5.208;2023-03-23T12:32:28;5.50;;;2.27;;
20294;SDS011;10306;52.128;5.208;2023-03-23T12:40:03;2.40;;;1.40;;
20294;SDS011;10306;52.128;5.208;2023-03-23T12:47:48;3.00;;;1.63;;
20294;SDS011;10306;52.128;5.208;2023-03-23T12:55:34;5.13;;;1.70;;
20294;SDS011;10306;52.128;5.208;2023-03-23T13:00:46;3.70;;;1.43;;
20294;SDS011;10306;52.128;5.208;2023-03-23T13:03:17;3.10;;;1.53;;
20294;SDS011;10306;52.128;5.208;2023-03-23T13:05:57;4.97;;;1.70;;
20294;SDS011;10306;52.128;5.208;2023-03-23T13:08:26;1.80;;;1.70;;
20294;SDS011;10306;52.128;5.208;2023-03-23T13:10:55;3.33;;;1.47;;
20294;SDS011;10306;52.128;5.208;2023-03-23T13:13:23;2.57;;;1.50;;
20294;SDS011;10306;52.128;5.208;2023-03-23T13:18:25;3.20;;;1.53;;
20294;SDS011;10306;52.128;5.208;2023-03-23T13:23:28;3.00;;;1.83;;
20294;SDS011;10306;52.128;5.208;2023-03-23T13:26:02;1.63;;;1.20;;
20294;SDS011;10306;52.128;5.208;2023-03-23T13:28:47;7.03;;;2.23;;
20294;SDS011;10306;52.128;5.208;2023-03-23T13:31:20;3.60;;;1.20;;
20294;SDS011;10306;52.128;5.208;2023-03-23T13:33:50;5.97;;;2.17;;
20294;SDS011;10306;52.128;5.208;2023-03-23T13:36:18;4.73;;;1.53;;
20294;SDS011;10306;52.128;5.208;2023-03-23T13:38:45;3.00;;;1.37;;
20294;SDS011;10306;52.128;5.208;2023-03-23T13:41:13;3.70;;;1.40;;
20294;SDS011;10306;52.128;5.208;2023-03-23T13:43:40;4.43;;;1.20;;
20294;SDS011;10306;52.128;5.208;2023-03-23T13:46:12;4.93;;;1.23;;
20294;SDS011;10306;52.128;5.208;2023-03-23T13:48:46;3.53;;;1.40;;
20294;SDS011;10306;52.128;5.208;2023-03-23T13:53:50;2.47;;;1.30;;
20294;SDS011;10306;52.128;5.208;2023-03-23T13:56:20;3.90;;;1.33;;
20294;SDS011;10306;52.128;5.208;2023-03-23T13:58:50;3.17;;;1.37;;
20294;SDS011;10306;52.128;5.208;2023-03-23T14:01:19;1.97;;;1.40;;
20294;SDS011;10306;52.128;5.208;2023-03-23T14:03:58;6.00;;;1.83;;
20294;SDS011;10306;52.128;5.208;2023-03-23T14:06:25;2.40;;;1.70;;
20294;SDS011;10306;52.128;5.208;2023-03-23T14:08:53;3.00;;;1.30;;
20294;SDS011;10306;52.128;5.208;2023-03-23T14:11:21;4.03;;;1.60;;
20294;SDS011;10306;52.128;5.208;2023-03-23T14:13:59;1.27;;;0.97;;
20294;SDS011;10306;52.128;5.208;2023-03-23T14:19:14;4.77;;;1.40;;
20294;SDS011;10306;52.128;5.208;2023-03-23T14:21:41;5.37;;;1.40;;
20294;SDS011;10306;52.128;5.208;2023-03-23T14:24:12;3.73;;;1.40;;
20294;SDS011;10306;52.128;5.208;2023-03-23T14:26:39;2.00;;;1.47;;
20294;SDS011;10306;52.128;5.208;2023-03-23T14:29:05;1.60;;;1.50;;
20294;SDS011;10306;52.128;5.208;2023-03-23T14:31:31;2.70;;;1.53;;
20294;SDS011;10306;52.128;5.208;2023-03-23T14:34:01;3.80;;;1.50;;
20294;SDS011;10306;52.128;5.208;2023-03-23T14:36:29;2.23;;;1.30;;
20294;SDS011;10306;52.128;5.208;2023-03-23T14:38:56;4.83;;;2.00;;
20294;SDS011;10306;52.128;5.208;2023-03-23T14:41:22;5.17;;;1.70;;
20294;SDS011;10306;52.128;5.208;2023-03-23T14:43:49;8.10;;;1.63;;
20294;SDS011;10306;52.128;5.208;2023-03-23T14:46:15;4.10;;;1.63;;
20294;SDS011;10306;52.128;5.208;2023-03-23T14:48:42;4.13;;;1.50;;
20294;SDS011;10306;52.128;5.208;2023-03-23T14:51:14;2.07;;;1.10;;
20294;SDS011;10306;52.128;5.208;2023-03-23T14:53:42;4.33;;;1.60;;
20294;SDS011;10306;52.128;5.208;2023-03-23T14:56:12;2.97;;;1.57;;
20294;SDS011;10306;52.128;5.208;2023-03-23T14:58:38;5.50;;;1.70;;
20294;SDS011;10306;52.128;5.208;2023-03-23T15:01:19;3.47;;;1.23;;
20294;SDS011;10306;52.128;5.208;2023-03-23T15:04:04;4.07;;;1.60;;
20294;SDS011;10306;52.128;5.208;2023-03-23T15:06:32;4.30;;;1.40;;
20294;SDS011;10306;52.128;5.208;2023-03-23T15:09:00;3.63;;;1.43;;
20294;SDS011;10306;52.128;5.208;2023-03-23T15:11:28;3.63;;;1.43;;
20294;SDS011;10306;52.128;5.208;2023-03-23T15:13:55;3.70;;;1.60;;
20294;SDS011;10306;52.128;5.208;2023-03-23T15:16:25;4.40;;;1.50;;
20294;SDS011;10306;52.128;5.208;2023-03-23T15:19:02;5.40;;;1.77;;
20294;SDS011;10306;52.128;5.208;2023-03-23T15:21:36;3.33;;;1.30;;
20294;SDS011;10306;52.128;5.208;2023-03-23T15:24:31;6.13;;;1.70;;
20294;SDS011;10306;52.128;5.208;2023-03-23T15:27:31;8.57;;;2.30;;
20294;SDS011;10306;52.128;5.208;2023-03-23T15:29:54;7.07;;;1.97;;
20294;SDS011;10306;52.128;5.208;2023-03-23T15:32:23;2.20;;;1.40;;
20294;SDS011;10306;52.128;5.208;2023-03-23T15:34:49;4.50;;;1.77;;
20294;SDS011;10306;52.128;5.208;2023-03-23T15:37:28;3.87;;;1.40;;
20294;SDS011;10306;52.128;5.208;2023-03-23T15:39:56;6.03;;;1.40;;
20294;SDS011;10306;52.128;5.208;2023-03-23T15:42:26;6.93;;;1.63;;
20294;SDS011;10306;52.128;5.208;2023-03-23T15:44:57;4.40;;;1.73;;
20294;SDS011;10306;52.128;5.208;2023-03-23T15:47:32;4.13;;;1.70;;
20294;SDS011;10306;52.128;5.208;2023-03-23T15:50:04;4.27;;;1.90;;
20294;SDS011;10306;52.128;5.208;2023-03-23T15:52:34;5.70;;;1.50;;
20294;SDS011;10306;52.128;5.208;2023-03-23T15:55:00;5.27;;;1.60;;
20294;SDS011;10306;52.128;5.208;2023-03-23T15:57:25;3.87;;;1.47;;
20294;SDS011;10306;52.128;5.208;2023-03-23T15:59:51;4.30;;;1.60;;
20294;SDS011;10306;52.128;5.208;2023-03-23T16:02:19;5.50;;;1.70;;
20294;SDS011;10306;52.128;5.208;2023-03-23T16:04:46;5.63;;;1.83;;
20294;SDS011;10306;52.128;5.208;2023-03-23T16:07:12;3.10;;;1.50;;
20294;SDS011;10306;52.128;5.208;2023-03-23T16:09:39;6.50;;;1.80;;
20294;SDS011;10306;52.128;5.208;2023-03-23T16:12:09;2.40;;;1.50;;
20294;SDS011;10306;52.128;5.208;2023-03-23T16:14:37;4.07;;;1.30;;
20294;SDS011;10306;52.128;5.208;2023-03-23T16:17:02;7.37;;;2.07;;
20294;SDS011;10306;52.128;5.208;2023-03-23T16:19:29;4.17;;;1.43;;
20294;SDS011;10306;52.128;5.208;2023-03-23T16:21:55;6.00;;;2.30;;
20294;SDS011;10306;52.128;5.208;2023-03-23T16:24:21;6.87;;;1.80;;
20294;SDS011;10306;52.128;5.208;2023-03-23T16:26:47;5.03;;;1.60;;
20294;SDS011;10306;52.128;5.208;2023-03-23T16:29:15;7.97;;;1.80;;
20294;SDS011;10306;52.128;5.208;2023-03-23T16:31:41;4.73;;;1.83;;